Time;durP1;ratioP1;P1;durP2;ratioP2;P2;SDS_P1;SDS_P2;PMS_P1;PMS_P2;Temp;Humidity;BMP_temperature;BMP_pressure;BME280_temperature;BME280_humidity;BME280_pressure;Samples;Min_cycle;Max_cycle;Signal;HPM_P1;HPM_P2
2023/01/06 00:01:30;;;;;;;6.30;4.45;;;;;;;6.35;100.00;101146.84;5069161;28;20131;-74
2023/01/06 00:03:57;;;;;;;6.93;3.60;;;;;;;6.36;100.00;101147.72;5071840;28;20574;-74
2023/01/06 00:06:26;;;;;;;7.93;3.08;;;;;;;6.35;100.00;101146.84;5072818;28;20036;-74
2023/01/06 00:09:01;;;;;;;5.65;2.22;;;;;;;6.35;100.00;101152.06;5071900;28;20082;-74
2023/01/06 00:11:27;;;;;;;5.70;2.42;;;;;;;6.27;100.00;101152.78;5065512;28;20033;-74
2023/01/06 00:13:54;;;;;;;4.95;1.98;;;;;;;6.26;100.00;101151.91;5072990;28;20044;-74
2023/01/06 00:16:20;;;;;;;4.38;2.13;;;;;;;6.19;100.00;101151.72;5072758;28;20050;-74
2023/01/06 00:18:47;;;;;;;5.03;2.10;;;;;;;6.25;100.00;101157.09;5072693;28;20052;-74
2023/01/06 00:21:14;;;;;;;4.78;1.88;;;;;;;6.27;100.00;101145.78;5072785;28;20410;-74
2023/01/06 00:23:39;;;;;;;4.05;2.05;;;;;;;6.26;100.00;101145.75;5079326;28;20060;-74
2023/01/06 00:26:06;;;;;;;4.78;2.30;;;;;;;6.20;100.00;101146.50;5070030;28;20060;-74
2023/01/06 00:28:33;;;;;;;6.53;2.10;;;;;;;6.23;100.00;101148.31;5071544;28;20067;-74
2023/01/06 00:31:04;;;;;;;4.50;1.75;;;;;;;6.26;100.00;101146.66;5072563;28;20036;-74
2023/01/06 00:33:30;;;;;;;4.40;1.73;;;;;;;6.33;100.00;101147.66;5068396;28;20177;-74
2023/01/06 00:35:58;;;;;;;6.03;2.25;;;;;;;6.40;100.00;101144.31;5072094;28;20127;-74
2023/01/06 00:38:23;;;;;;;5.70;2.40;;;;;;;6.39;100.00;101137.28;5088087;28;20138;-74
2023/01/06 00:40:48;;;;;;;5.13;2.45;;;;;;;6.40;100.00;101138.19;5072249;28;20123;-74
2023/01/06 00:43:14;;;;;;;5.10;2.05;;;;;;;6.41;100.00;101145.19;5072254;28;20170;-74
2023/01/06 00:45:39;;;;;;;5.15;2.30;;;;;;;6.40;100.00;101139.06;5072099;28;20119;-74
2023/01/06 00:48:04;;;;;;;4.30;1.77;;;;;;;6.35;100.00;101135.47;5070926;28;20044;-74
2023/01/06 00:50:30;;;;;;;4.55;2.10;;;;;;;6.41;100.00;101139.94;5072145;28;20028;-74
2023/01/06 00:52:55;;;;;;;5.03;2.25;;;;;;;6.46;100.00;101128.69;5072276;28;20036;-74
2023/01/06 00:55:21;;;;;;;9.50;3.88;;;;;;;6.44;100.00;101134.75;5070606;28;20032;-74
2023/01/06 00:57:46;;;;;;;5.93;2.33;;;;;;;6.35;100.00;101131.09;5072054;28;20043;-74
2023/01/06 01:00:12;;;;;;;4.70;2.13;;;;;;;6.29;100.00;101123.13;5071930;28;20076;-74
2023/01/06 01:02:37;;;;;;;5.95;2.47;;;;;;;6.16;100.00;101128.97;5072057;28;20037;-74
2023/01/06 01:05:03;;;;;;;6.57;2.47;;;;;;;6.07;100.00;101124.38;5070597;28;20036;-74
2023/01/06 01:07:28;;;;;;;4.55;2.47;;;;;;;5.95;100.00;101139.84;5071744;28;20047;-74
2023/01/06 01:09:54;;;;;;;5.13;2.85;;;;;;;5.80;100.00;101144.72;5071813;28;20039;-74
2023/01/06 01:12:19;;;;;;;6.75;2.58;;;;;;;5.71;100.00;101141.03;5070857;28;20536;-74
2023/01/06 01:14:50;;;;;;;3.72;2.13;;;;;;;5.67;100.00;101136.56;5074230;28;20447;-74
2023/01/06 01:17:18;;;;;;;7.75;2.90;;;;;;;5.68;100.00;101135.69;5071469;28;20033;-74
2023/01/06 01:19:45;;;;;;;4.95;2.53;;;;;;;5.65;100.00;101133.00;5070379;28;20559;-74
2023/01/06 01:22:11;;;;;;;6.80;2.67;;;;;;;5.68;100.00;101127.84;5070425;28;20028;-74
2023/01/06 01:24:37;;;;;;;4.90;2.83;;;;;;;5.74;100.00;101134.06;5070193;28;20090;-74
2023/01/06 01:27:04;;;;;;;5.53;2.53;;;;;;;5.74;100.00;101131.44;5071478;28;20032;-74
2023/01/06 01:29:29;;;;;;;5.75;3.05;;;;;;;5.71;100.00;101127.94;5070122;28;20044;-74
2023/01/06 01:31:55;;;;;;;5.45;2.90;;;;;;;5.75;100.00;101133.25;5062808;28;20033;-74
2023/01/06 01:34:21;;;;;;;6.72;2.97;;;;;;;5.76;100.00;101132.38;5071478;28;20574;-74
2023/01/06 01:36:49;;;;;;;5.15;2.35;;;;;;;5.82;100.00;101132.53;5069608;28;20483;-74
2023/01/06 01:39:16;;;;;;;4.80;2.78;;;;;;;5.84;100.00;101130.81;5071215;28;20043;-74
2023/01/06 01:41:42;;;;;;;5.25;2.80;;;;;;;5.86;100.00;101139.59;5071359;28;20024;-74
2023/01/06 01:44:45;;;;;;;5.75;2.83;;;;;;;5.89;100.00;101131.81;5071355;28;20135;-74
2023/01/06 01:47:17;;;;;;;6.72;3.00;;;;;;;5.91;100.00;101133.59;5084851;28;20540;-74
2023/01/06 01:49:46;;;;;;;6.20;2.33;;;;;;;5.99;100.00;101131.19;5069137;28;20028;-74
2023/01/06 01:52:13;;;;;;;3.90;2.15;;;;;;;6.07;100.00;101137.50;5071235;28;20039;-74
2023/01/06 01:54:39;;;;;;;6.22;2.40;;;;;;;6.09;100.00;101138.41;5071319;28;20044;-74
2023/01/06 01:57:13;;;;;;;4.75;2.58;;;;;;;6.11;100.00;101133.22;5070980;28;20044;-74
2023/01/06 01:59:40;;;;;;;7.90;2.88;;;;;;;6.17;100.00;101132.47;5066157;28;20409;-74
2023/01/06 02:02:05;;;;;;;4.90;2.38;;;;;;;6.22;100.00;101128.19;5070982;28;20040;-73
2023/01/06 02:04:35;;;;;;;4.47;2.05;;;;;;;6.23;100.00;101124.72;5068591;28;20041;-74
2023/01/06 02:07:01;;;;;;;6.55;2.05;;;;;;;6.17;100.00;101125.47;5070906;28;20025;-74
2023/01/06 02:09:48;;;;;;;5.50;2.53;;;;;;;6.17;100.00;101106.25;5069730;28;20505;-74
2023/01/06 02:12:14;;;;;;;4.20;2.15;;;;;;;6.14;100.00;101114.94;5069840;28;20379;-73
2023/01/06 02:14:39;;;;;;;3.90;2.00;;;;;;;6.14;100.00;101110.56;5069608;28;20115;-74
2023/01/06 02:17:30;;;;;;;4.70;2.22;;;;;;;6.20;100.00;101103.69;5070841;28;20544;-74
2023/01/06 02:20:20;;;;;;;6.78;2.33;;;;;;;6.27;100.00;101105.59;5067724;28;20043;-74
2023/01/06 02:23:07;;;;;;;6.75;2.40;;;;;;;6.25;100.00;101096.81;5066544;28;20037;-74
2023/01/06 02:25:57;;;;;;;4.85;2.40;;;;;;;6.26;100.00;101093.31;5066640;28;20041;-74
2023/01/06 02:28:41;;;;;;;5.40;2.58;;;;;;;6.26;100.00;101073.25;5069984;28;20056;-76
2023/01/06 02:31:27;;;;;;;4.65;2.10;;;;;;;6.31;100.00;101071.63;5070752;28;20559;-76
2023/01/06 02:34:04;;;;;;;4.95;2.33;;;;;;;6.34;100.00;101071.66;5071028;28;20157;-76
2023/01/06 02:36:43;;;;;;;6.63;2.60;;;;;;;6.34;100.00;101081.25;5068347;28;20036;-76
2023/01/06 02:39:32;;;;;;;6.03;2.60;;;;;;;6.30;100.00;101075.06;5082857;28;20043;-76
2023/01/06 02:42:15;;;;;;;5.43;2.72;;;;;;;6.31;100.00;101079.47;5066871;28;20038;-76
2023/01/06 02:45:26;;;;;;;5.90;2.67;;;;;;;6.25;100.00;101063.59;5069467;28;20029;-76
2023/01/06 02:48:22;;;;;;;5.57;2.35;;;;;;;6.24;100.00;101064.47;5066814;28;20416;-76
2023/01/06 02:50:55;;;;;;;7.80;2.53;;;;;;;6.26;100.00;101067.09;5073641;28;20029;-76
2023/01/06 02:53:50;;;;;;;9.05;2.70;;;;;;;6.30;100.00;101047.97;5051903;28;20484;-76
2023/01/06 02:56:21;;;;;;;5.35;2.30;;;;;;;6.29;100.00;101041.84;5070761;28;20387;-76
2023/01/06 02:58:56;;;;;;;6.15;2.90;;;;;;;6.30;100.00;101037.50;5082000;28;20407;-76
2023/01/06 03:01:27;;;;;;;6.82;2.35;;;;;;;6.25;100.00;101041.75;5071547;28;20031;-76
2023/01/06 03:03:57;;;;;;;8.75;3.25;;;;;;;6.26;100.00;101041.81;5074367;28;20122;-76
2023/01/06 03:06:28;;;;;;;6.30;2.85;;;;;;;6.28;100.00;101034.81;5080060;28;20407;-76
2023/01/06 03:08:55;;;;;;;4.40;2.75;;;;;;;6.24;100.00;101037.38;5074201;28;20024;-76
2023/01/06 03:11:25;;;;;;;7.72;2.95;;;;;;;6.13;100.00;101035.44;5072887;28;20033;-76
2023/01/06 03:13:57;;;;;;;4.00;1.58;;;;;;;6.01;100.00;101029.94;5074216;28;20032;-76
2023/01/06 03:16:22;;;;;;;5.22;1.58;;;;;;;6.07;100.00;101035.28;5086214;28;20043;-76
2023/01/06 03:18:51;;;;;;;5.53;2.08;;;;;;;6.12;100.00;101044.13;5074129;28;20028;-76
2023/01/06 03:21:29;;;;;;;6.28;2.65;;;;;;;6.17;100.00;101045.97;5081692;28;20490;-76
2023/01/06 03:23:54;;;;;;;3.67;1.77;;;;;;;6.10;100.00;101043.25;5070440;28;20036;-76
2023/01/06 03:26:20;;;;;;;5.60;2.05;;;;;;;6.17;100.00;101045.97;5073753;28;20070;-76
2023/01/06 03:28:45;;;;;;;5.35;2.33;;;;;;;6.22;100.00;101050.44;5070826;28;20695;-76
2023/01/06 03:31:43;;;;;;;3.72;2.35;;;;;;;6.35;100.00;101030.59;5072539;28;20028;-76
2023/01/06 03:34:38;;;;;;;4.63;1.77;;;;;;;6.45;100.00;101023.81;5086377;28;20033;-76
2023/01/06 03:37:07;;;;;;;3.05;1.40;;;;;;;6.52;100.00;101023.03;5068922;28;20040;-76
2023/01/06 03:39:44;;;;;;;3.33;1.70;;;;;;;6.66;100.00;101031.19;5072055;28;20059;-76
2023/01/06 03:45:50;;;;;;;5.82;1.67;;;;;;;6.77;100.00;101020.00;5088036;28;20063;-76
2023/01/06 03:48:29;;;;;;;3.15;1.30;;;;;;;6.89;100.00;101014.09;5066122;28;20028;-76
2023/01/06 03:51:18;;;;;;;3.53;1.73;;;;;;;6.96;100.00;101015.94;5072140;28;20033;-76
2023/01/06 03:53:53;;;;;;;5.20;1.60;;;;;;;7.05;100.00;100996.84;5087421;28;20040;-76
2023/01/06 03:56:28;;;;;;;6.35;1.48;;;;;;;7.02;100.00;100995.06;5069442;28;20032;-76
2023/01/06 03:58:57;;;;;;;3.78;1.38;;;;;;;6.99;100.00;100989.72;5072887;28;20041;-76
2023/01/06 04:01:25;;;;;;;4.72;1.38;;;;;;;7.01;100.00;100989.78;5071895;28;20024;-76
2023/01/06 04:03:53;;;;;;;2.90;1.10;;;;;;;7.04;100.00;100995.06;5071884;28;20109;-76
2023/01/06 04:06:20;;;;;;;8.07;1.45;;;;;;;7.07;100.00;100989.84;5081544;28;20033;-76
2023/01/06 04:08:46;;;;;;;5.72;1.05;;;;;;;7.07;100.00;100992.47;5080918;28;20040;-76
2023/01/06 04:12:37;;;;;;;6.35;1.58;;;;;;;7.00;100.00;100986.28;5071662;28;20407;-76
2023/01/06 04:13:57;;;;;;;5.65;1.58;;;;;;;6.96;100.00;100986.19;5070092;28;20086;-76
2023/01/06 04:16:23;;;;;;;6.25;1.45;;;;;;;6.93;100.00;100994.03;5071301;28;20024;-76
2023/01/06 04:18:48;;;;;;;4.97;1.77;;;;;;;6.91;100.00;100988.72;5071455;28;20029;-76
2023/01/06 04:21:15;;;;;;;5.15;1.60;;;;;;;6.94;100.00;100983.56;5069080;28;20036;-76
2023/01/06 04:23:41;;;;;;;8.27;1.60;;;;;;;7.07;100.00;100981.09;5072850;28;20032;-76
2023/01/06 04:26:06;;;;;;;5.68;1.35;;;;;;;7.18;100.00;100984.81;5088042;28;20050;-76
2023/01/06 04:28:38;;;;;;;5.47;1.50;;;;;;;7.24;100.00;100985.75;5071650;28;20032;-76
2023/01/06 04:31:04;;;;;;;7.43;1.83;;;;;;;7.18;100.00;100980.44;5071239;28;20029;-76
2023/01/06 04:33:32;;;;;;;6.75;1.85;;;;;;;7.17;100.00;100978.63;5071408;28;20506;-76
2023/01/06 04:36:00;;;;;;;6.43;1.67;;;;;;;7.23;100.00;100980.47;5072259;28;20078;-76
2023/01/06 04:38:26;;;;;;;4.70;1.67;;;;;;;7.24;100.00;100979.63;5088128;28;20032;-76
2023/01/06 04:40:52;;;;;;;4.45;1.58;;;;;;;7.32;100.00;100967.50;5072166;28;20043;-76
2023/01/06 04:43:17;;;;;;;4.88;1.70;;;;;;;7.37;100.00;100967.56;5072368;28;20126;-76
2023/01/06 04:45:43;;;;;;;4.70;1.60;;;;;;;7.43;100.00;100971.13;5067479;28;20082;-76
2023/01/06 04:48:09;;;;;;;3.50;1.42;;;;;;;7.48;100.00;100963.31;5066357;28;20032;-76
2023/01/06 04:50:35;;;;;;;3.38;1.60;;;;;;;7.53;100.00;100961.63;5072068;28;20044;-76
2023/01/06 04:53:01;;;;;;;7.53;2.55;;;;;;;7.53;100.00;100955.50;5072223;28;20062;-76
2023/01/06 04:55:26;;;;;;;6.47;2.22;;;;;;;7.58;100.00;100948.56;5071921;28;20028;-76
2023/01/06 04:57:52;;;;;;;5.55;2.20;;;;;;;7.62;100.00;100940.75;5072195;28;20032;-76
2023/01/06 05:00:18;;;;;;;6.10;2.42;;;;;;;7.63;100.00;100937.25;5079735;28;20134;-76
2023/01/06 05:02:43;;;;;;;7.80;2.92;;;;;;;7.64;100.00;100928.50;5072064;28;20044;-76
2023/01/06 05:05:09;;;;;;;4.95;2.72;;;;;;;7.55;100.00;100931.03;5071824;28;20036;-76
2023/01/06 05:07:35;;;;;;;7.30;2.70;;;;;;;7.57;100.00;100926.69;5071757;28;20036;-76
2023/01/06 05:10:00;;;;;;;6.32;2.40;;;;;;;7.62;100.00;100924.09;5071883;28;20710;-76
2023/01/06 05:12:25;;;;;;;8.77;2.97;;;;;;;7.66;100.00;100926.78;5071428;28;20441;-77
2023/01/06 05:14:50;;;;;;;6.03;2.58;;;;;;;7.73;100.00;100924.22;5087720;28;20433;-76
2023/01/06 05:17:16;;;;;;;5.65;2.72;;;;;;;7.79;100.00;100927.81;5071665;28;20040;-76
2023/01/06 05:19:43;;;;;;;8.48;2.35;;;;;;;7.76;100.00;100917.28;5071874;28;20043;-76
2023/01/06 05:22:09;;;;;;;7.03;2.80;;;;;;;7.70;100.00;100917.19;5069228;28;20040;-77
2023/01/06 05:24:35;;;;;;;9.75;2.47;;;;;;;7.66;100.00;100915.41;5071659;28;20037;-77
2023/01/06 05:27:00;;;;;;;5.75;3.00;;;;;;;7.72;100.00;100914.59;5070074;28;20410;-77
2023/01/06 05:29:25;;;;;;;9.93;3.13;;;;;;;7.66;100.00;100910.16;5071445;28;20036;-77
2023/01/06 05:31:51;;;;;;;8.93;3.70;;;;;;;7.61;100.00;100904.81;5071718;28;20055;-76
2023/01/06 05:34:16;;;;;;;9.65;4.78;;;;;;;7.52;100.00;100903.81;5071597;28;20119;-76
2023/01/06 05:36:41;;;;;;;10.73;4.70;;;;;;;7.44;100.00;100917.78;5086865;28;20117;-77
2023/01/06 05:39:07;;;;;;;8.55;4.65;;;;;;;7.46;100.00;100921.28;5071417;28;20048;-77
2023/01/06 05:41:32;;;;;;;14.82;5.07;;;;;;;7.45;100.00;100906.38;5089195;22;20044;-77
2023/01/06 05:43:58;;;;;;;7.97;4.15;;;;;;;7.51;100.00;100912.59;5059648;28;20179;-77
2023/01/06 05:46:23;;;;;;;8.75;3.13;;;;;;;7.60;100.00;100910.97;5062662;28;20047;-78
2023/01/06 05:48:48;;;;;;;10.52;4.35;;;;;;;7.70;100.00;100898.78;5062040;28;20040;-77
2023/01/06 05:51:15;;;;;;;5.97;3.63;;;;;;;7.78;100.00;100905.03;5061013;28;20127;-78
2023/01/06 05:53:42;;;;;;;7.32;3.70;;;;;;;7.86;100.00;100899.88;5060542;28;20038;-77
2023/01/06 05:56:10;;;;;;;11.25;4.20;;;;;;;7.92;100.00;100896.44;5062301;28;20494;-77
2023/01/06 05:58:39;;;;;;;11.35;4.43;;;;;;;7.97;100.00;100903.50;5056119;28;20491;-77
2023/01/06 06:01:04;;;;;;;8.07;3.60;;;;;;;7.89;100.00;100897.28;5061317;28;20044;-77
2023/01/06 06:03:30;;;;;;;7.80;3.40;;;;;;;7.87;100.00;100899.00;5061274;28;20033;-77
2023/01/06 06:06:02;;;;;;;6.53;3.10;;;;;;;7.85;100.00;100893.72;5061039;28;20056;-78
2023/01/06 06:08:27;;;;;;;7.25;3.80;;;;;;;7.94;100.00;100884.16;5055651;28;20135;-77
2023/01/06 06:10:53;;;;;;;9.65;5.00;;;;;;;7.98;100.00;100893.84;5061704;28;20577;-77
2023/01/06 06:13:18;;;;;;;9.60;4.28;;;;;;;7.87;100.00;100894.63;5060342;28;20048;-77
2023/01/06 06:15:43;;;;;;;10.85;4.78;;;;;;;7.79;100.00;100891.03;5062096;28;20135;-78
2023/01/06 06:18:09;;;;;;;9.55;4.30;;;;;;;7.75;100.00;100894.47;5060138;28;20045;-77
2023/01/06 06:20:34;;;;;;;8.98;3.40;;;;;;;7.65;100.00;100895.22;5062214;28;20048;-77
2023/01/06 06:22:59;;;;;;;9.60;3.05;;;;;;;7.63;100.00;100889.97;5059687;28;20044;-77
2023/01/06 06:25:25;;;;;;;7.57;2.70;;;;;;;7.63;100.00;100881.22;5064655;28;20044;-77
2023/01/06 06:27:50;;;;;;;5.70;2.42;;;;;;;7.71;100.00;100884.81;5045950;28;20029;-78
2023/01/06 06:30:16;;;;;;;7.30;2.78;;;;;;;7.78;100.00;100877.84;5064280;28;20056;-77
2023/01/06 06:32:41;;;;;;;7.82;2.90;;;;;;;7.88;100.00;100880.59;5064446;28;20031;-77
2023/01/06 06:35:07;;;;;;;6.95;3.17;;;;;;;7.92;100.00;100886.78;5065754;28;20031;-77
2023/01/06 06:37:32;;;;;;;9.88;3.05;;;;;;;8.00;100.00;100879.84;5062828;28;20033;-78
2023/01/06 06:39:57;;;;;;;6.05;2.53;;;;;;;7.96;100.00;100888.56;5058824;28;20034;-76
2023/01/06 06:42:23;;;;;;;8.15;2.78;;;;;;;7.90;100.00;100881.50;5047634;28;20439;-77
2023/01/06 06:44:48;;;;;;;9.85;3.45;;;;;;;7.83;100.00;100879.69;5063785;28;20675;-78
2023/01/06 06:47:14;;;;;;;11.15;4.55;;;;;;;7.80;100.00;100871.75;5064218;28;20498;-77
2023/01/06 06:49:40;;;;;;;7.47;2.65;;;;;;;7.83;100.00;100877.06;5065543;28;20067;-77
2023/01/06 06:52:05;;;;;;;10.75;4.25;;;;;;;7.88;100.00;100877.97;5065833;28;20080;-78
2023/01/06 06:54:30;;;;;;;7.90;2.83;;;;;;;7.88;100.00;100870.09;5062732;28;20036;-78
2023/01/06 06:56:56;;;;;;;6.82;2.47;;;;;;;7.96;100.00;100866.66;5064256;28;20124;-78
2023/01/06 06:59:21;;;;;;;7.18;3.03;;;;;;;8.02;100.00;100872.00;5046685;28;20099;-77
2023/01/06 07:01:47;;;;;;;8.15;3.53;;;;;;;8.07;100.00;100870.31;5063009;28;20056;-77
2023/01/06 07:04:12;;;;;;;11.82;5.68;;;;;;;8.12;100.00;100856.31;5064590;28;20554;-78
2023/01/06 07:06:37;;;;;;;8.10;4.18;;;;;;;8.16;100.00;100854.59;5062896;28;20112;-78
2023/01/06 07:09:02;;;;;;;8.88;2.92;;;;;;;8.20;100.00;100853.75;5048880;28;20057;-78
2023/01/06 07:11:28;;;;;;;9.52;4.40;;;;;;;8.28;100.00;100854.72;5062474;28;20573;-77
2023/01/06 07:13:54;;;;;;;7.47;2.85;;;;;;;8.29;100.00;100851.19;5065103;28;20028;-77
2023/01/06 07:16:22;;;;;;;9.77;3.90;;;;;;;8.37;100.00;100843.38;5063716;28;20390;-78
2023/01/06 07:18:47;;;;;;;9.32;3.53;;;;;;;8.43;100.00;100838.19;5064448;28;20037;-78
2023/01/06 07:21:12;;;;;;;7.32;3.60;;;;;;;8.49;100.00;100837.38;5061455;28;20403;-77
2023/01/06 07:23:37;;;;;;;7.35;2.72;;;;;;;8.53;100.00;100836.50;5063295;28;20044;-77
2023/01/06 07:26:03;;;;;;;11.52;2.95;;;;;;;8.60;100.00;100840.06;5064802;28;20036;-78
2023/01/06 07:28:30;;;;;;;6.88;2.53;;;;;;;8.56;100.00;100839.16;5062579;28;20064;-77
2023/01/06 07:30:56;;;;;;;5.80;2.75;;;;;;;8.60;100.00;100835.69;5063852;28;20031;-77
2023/01/06 07:33:21;;;;;;;6.97;2.72;;;;;;;8.64;100.00;100837.44;5062070;28;20029;-78
2023/01/06 07:35:52;;;;;;;6.68;3.38;;;;;;;8.68;100.00;100841.00;5061260;28;20498;-78
2023/01/06 07:38:17;;;;;;;6.20;2.35;;;;;;;8.72;100.00;100843.66;5057127;28;20132;-77
2023/01/06 07:40:43;;;;;;;7.45;2.95;;;;;;;8.73;100.00;100839.28;5062337;28;20542;-77
2023/01/06 07:43:10;;;;;;;5.13;2.17;;;;;;;8.78;100.00;100838.44;5063853;28;20565;-77
2023/01/06 07:45:36;;;;;;;8.30;2.63;;;;;;;8.85;100.00;100835.84;5062762;28;20450;-78
2023/01/06 07:48:01;;;;;;;6.07;2.60;;;;;;;8.87;100.00;100834.09;5064606;28;20046;-78
2023/01/06 07:50:27;;;;;;;8.43;3.40;;;;;;;8.88;100.00;100838.47;5061588;28;20040;-78
2023/01/06 07:52:55;;;;;;;7.25;3.05;;;;;;;8.91;100.00;100831.50;5064846;28;20090;-78
2023/01/06 07:55:21;;;;;;;10.18;5.40;;;;;;;9.02;100.00;100828.03;5062526;28;20033;-78
2023/01/06 07:57:46;;;;;;;13.80;6.75;;;;;;;9.06;100.00;100824.53;5064564;28;20036;-77
2023/01/06 08:00:12;;;;;;;13.63;5.78;;;;;;;9.11;100.00;100817.53;5062489;28;20036;-77
2023/01/06 08:02:37;;;;;;;10.18;3.28;;;;;;;9.18;100.00;100807.03;5064735;28;20093;-77
2023/01/06 08:05:03;;;;;;;9.52;3.72;;;;;;;9.26;100.00;100812.34;5061324;28;20395;-78
2023/01/06 08:07:28;;;;;;;6.75;2.80;;;;;;;9.28;100.00;100801.81;5064254;28;20036;-78
2023/01/06 08:09:53;;;;;;;6.20;2.53;;;;;;;9.27;100.00;100802.69;5062155;28;20574;-78
2023/01/06 08:12:19;;;;;;;6.38;3.58;;;;;;;9.32;100.00;100798.31;5063040;28;20388;-78
2023/01/06 08:14:44;;;;;;;10.02;4.15;;;;;;;9.40;100.00;100791.28;5063131;28;20051;-78
2023/01/06 08:17:09;;;;;;;6.07;2.75;;;;;;;9.46;100.00;100796.59;5062248;28;20029;-77
2023/01/06 08:19:35;;;;;;;8.20;3.75;;;;;;;9.53;100.00;100795.72;5061270;28;20036;-78
2023/01/06 08:22:00;;;;;;;7.70;2.15;;;;;;;9.56;100.00;100795.75;5064247;28;20036;-78
2023/01/06 08:24:26;;;;;;;6.00;2.13;;;;;;;9.56;100.00;100786.94;5061359;28;20040;-78
2023/01/06 08:26:51;;;;;;;4.07;1.98;;;;;;;9.59;100.00;100795.75;5063276;28;20120;-78
2023/01/06 08:29:16;;;;;;;6.40;2.08;;;;;;;9.69;100.00;100806.31;5062630;28;20490;-78
2023/01/06 08:31:42;;;;;;;6.22;2.03;;;;;;;9.70;100.00;100805.44;5063040;28;20072;-78
2023/01/06 08:34:07;;;;;;;5.97;2.40;;;;;;;9.65;100.00;100805.44;5061323;28;20029;-78
2023/01/06 08:36:32;;;;;;;5.88;1.98;;;;;;;9.73;100.00;100815.97;5063833;28;20032;-78
2023/01/06 08:38:58;;;;;;;5.55;1.73;;;;;;;9.83;100.00;100807.22;5060955;28;20444;-78
2023/01/06 08:41:23;;;;;;;6.93;2.38;;;;;;;9.91;100.00;100813.38;5063181;28;20449;-78
2023/01/06 08:43:49;;;;;;;4.72;2.28;;;;;;;9.97;100.00;100818.66;5058807;28;20118;-78
2023/01/06 08:46:17;;;;;;;4.47;1.65;;;;;;;10.04;100.00;100820.41;5059104;28;20025;-78
2023/01/06 08:48:43;;;;;;;5.72;2.15;;;;;;;10.11;100.00;100808.09;5061212;28;20116;-78
2023/01/06 08:51:22;;;;;;;5.00;2.05;;;;;;;10.22;100.00;100809.00;5063767;28;20127;-78
2023/01/06 08:53:47;;;;;;;5.30;2.03;;;;;;;10.30;100.00;100811.66;5062525;28;20491;-78
2023/01/06 08:56:20;;;;;;;4.40;2.05;;;;;;;10.40;100.00;100801.97;5060920;28;20039;-77
2023/01/06 08:58:50;;;;;;;5.05;2.05;;;;;;;10.43;100.00;100809.91;5057341;28;20029;-79
2023/01/06 09:01:17;;;;;;;4.55;1.65;;;;;;;10.50;100.00;100812.50;5062066;28;20083;-77
2023/01/06 09:03:43;;;;;;;6.47;1.80;;;;;;;10.49;100.00;100794.03;5062753;28;20132;-78
2023/01/06 09:06:08;;;;;;;6.32;2.25;;;;;;;10.50;100.00;100798.44;5063402;28;20064;-77
2023/01/06 09:08:33;;;;;;;7.88;2.20;;;;;;;10.56;100.00;100802.81;5059999;28;20498;-78
2023/01/06 09:11:05;;;;;;;5.68;2.17;;;;;;;10.58;100.00;100806.34;5063043;28;20037;-78
2023/01/06 09:13:30;;;;;;;3.75;1.58;;;;;;;10.57;100.00;100809.88;5060669;28;20045;-78
2023/01/06 09:15:55;;;;;;;5.15;1.70;;;;;;;10.63;100.00;100807.22;5060835;28;20040;-78
2023/01/06 09:18:21;;;;;;;3.97;1.75;;;;;;;10.70;100.00;100806.31;5060996;28;20044;-78
2023/01/06 09:20:46;;;;;;;4.80;1.48;;;;;;;10.72;100.00;100813.34;5059532;28;20079;-78
2023/01/06 09:23:11;;;;;;;4.65;1.45;;;;;;;10.78;100.00;100807.19;5063154;28;20398;-78
2023/01/06 09:25:37;;;;;;;6.40;2.38;;;;;;;10.80;100.00;100813.34;5060306;28;20044;-78
2023/01/06 09:28:02;;;;;;;5.57;2.45;;;;;;;10.86;100.00;100823.88;5061600;28;20025;-78
2023/01/06 09:30:28;;;;;;;4.07;2.38;;;;;;;10.90;100.00;100815.06;5061157;28;20048;-78
2023/01/06 09:32:53;;;;;;;3.53;1.40;;;;;;;10.99;100.00;100813.28;5062196;28;20033;-77
2023/01/06 09:35:18;;;;;;;3.95;1.90;;;;;;;11.07;100.00;100808.84;5059912;28;20438;-78
2023/01/06 09:37:44;;;;;;;5.65;2.40;;;;;;;11.03;100.00;100808.00;5062414;28;20111;-78
2023/01/06 09:40:16;;;;;;;6.38;2.70;;;;;;;11.01;100.00;100800.97;5059500;28;20068;-78
2023/01/06 09:42:55;;;;;;;7.28;3.60;;;;;;;11.02;100.00;100800.06;5060999;28;20047;-78
2023/01/06 09:45:33;;;;;;;5.53;2.17;;;;;;;11.03;100.00;100794.78;5056511;28;20029;-79
2023/01/06 09:47:59;;;;;;;3.50;1.45;;;;;;;11.03;100.00;100794.78;5058318;28;20039;-77
2023/01/06 09:50:34;;;;;;;4.78;1.73;;;;;;;11.05;100.00;100793.00;5062582;28;20044;-78
2023/01/06 09:53:29;;;;;;;4.00;1.50;;;;;;;10.91;100.00;100797.47;5061165;28;20499;-77
2023/01/06 09:56:02;;;;;;;5.60;1.35;;;;;;;10.83;100.00;100791.34;5056818;28;20534;-78
2023/01/06 09:58:53;;;;;;;6.22;3.42;;;;;;;10.74;100.00;100784.28;5055516;28;20036;-78
2023/01/06 10:01:29;;;;;;;3.33;1.75;;;;;;;10.68;100.00;100801.03;5055966;28;20090;-78
2023/01/06 10:03:56;;;;;;;6.53;1.95;;;;;;;10.63;100.00;100797.53;5060454;28;20492;-78
2023/01/06 10:06:36;;;;;;;4.00;1.42;;;;;;;10.66;100.00;100783.44;5058431;28;20067;-78
2023/01/06 10:09:16;;;;;;;2.20;0.88;;;;;;;10.71;100.00;100781.66;5059011;28;20080;-78
2023/01/06 10:11:54;;;;;;;3.30;1.20;;;;;;;10.76;100.00;100777.25;5055425;28;20044;-78
2023/01/06 10:14:26;;;;;;;2.53;0.90;;;;;;;10.79;100.00;100774.59;5062082;28;20032;-78
2023/01/06 10:17:26;;;;;;;3.30;0.55;;;;;;;10.82;100.00;100774.63;5055184;28;20036;-78
2023/01/06 10:20:22;;;;;;;0.40;0.30;;;;;;;10.84;100.00;100761.38;5059383;28;20084;-78
2023/01/06 10:23:09;;;;;;;0.52;0.38;;;;;;;10.77;100.00;100759.66;5051154;28;20049;-79
2023/01/06 10:25:44;;;;;;;0.40;0.13;;;;;;;10.73;100.00;100749.09;5060346;28;20596;-78
2023/01/06 10:28:28;;;;;;;0.80;0.32;;;;;;;10.87;100.00;100746.44;5059078;28;20041;-78
2023/01/06 10:30:57;;;;;;;1.13;0.30;;;;;;;10.91;100.00;100742.88;5058818;28;20134;-78
2023/01/06 10:33:25;;;;;;;0.03;0.00;;;;;;;10.90;100.00;100734.97;5061363;28;20033;-78
2023/01/06 10:35:54;;;;;;;0.82;0.30;;;;;;;10.94;100.00;100727.03;5059481;28;20067;-78
2023/01/06 10:38:39;;;;;;;0.45;0.30;;;;;;;11.03;100.00;100720.84;5062105;28;20094;-78
2023/01/06 10:41:12;;;;;;;0.22;0.10;;;;;;;11.10;100.00;100721.66;5059866;28;20538;-77
2023/01/06 10:43:38;;;;;;;0.47;0.20;;;;;;;11.12;100.00;100717.25;5055586;28;20040;-78
2023/01/06 10:46:03;;;;;;;4.85;0.28;;;;;;;11.23;100.00;100718.06;5062349;28;20028;-78
2023/01/06 10:48:31;;;;;;;1.65;0.30;;;;;;;11.25;100.00;100711.03;5060904;28;20051;-78
2023/01/06 10:50:56;;;;;;;0.60;0.10;;;;;;;11.25;100.00;100708.38;5058129;28;20446;-78
2023/01/06 10:53:22;;;;;;;0.40;0.10;;;;;;;11.24;100.00;100703.09;5061737;28;20063;-78
2023/01/06 10:55:55;;;;;;;0.77;0.30;;;;;;;11.27;100.00;100705.75;5058611;28;20037;-77
2023/01/06 10:58:30;;;;;;;0.25;0.10;;;;;;;11.28;100.00;100708.34;5059809;28;20091;-78
2023/01/06 11:01:15;;;;;;;0.10;0.10;;;;;;;11.28;100.00;100705.72;5059014;28;20029;-78
2023/01/06 11:03:41;;;;;;;0.95;0.32;;;;;;;11.20;100.00;100702.25;5059945;28;20094;-78
2023/01/06 11:06:29;;;;;;;2.08;0.30;;;;;;;11.18;100.00;100704.00;5057291;28;20043;-78
2023/01/06 11:08:54;;;;;;;0.55;0.13;;;;;;;11.20;100.00;100691.69;5061004;28;20413;-78
2023/01/06 11:11:21;;;;;;;1.50;0.30;;;;;;;11.27;100.00;100700.47;5062363;28;20032;-78
2023/01/06 11:13:54;;;;;;;0.32;0.20;;;;;;;11.29;100.00;100699.56;5063798;28;20033;-78
2023/01/06 11:16:35;;;;;;;0.93;0.30;;;;;;;11.25;100.00;100695.16;5060278;28;20514;-78
2023/01/06 11:19:07;;;;;;;0.25;0.20;;;;;;;11.35;100.00;100704.78;5061868;28;20032;-77
2023/01/06 11:21:42;;;;;;;1.58;0.35;;;;;;;11.41;100.00;100707.38;5064660;28;20178;-78
2023/01/06 11:24:15;;;;;;;1.52;0.40;;;;;;;11.36;100.00;100709.19;5058052;28;20048;-78
2023/01/06 11:26:59;;;;;;;2.05;0.38;;;;;;;11.40;100.00;100720.63;5062462;28;20054;-78
2023/01/06 11:29:33;;;;;;;2.50;0.63;;;;;;;11.39;100.00;100703.88;5059437;28;20617;-78
2023/01/06 11:32:05;;;;;;;1.05;0.30;;;;;;;11.40;100.00;100699.47;5044756;28;20033;-78
2023/01/06 11:34:30;;;;;;;0.90;0.30;;;;;;;11.42;100.00;100689.75;5059662;28;20431;-77
2023/01/06 11:36:57;;;;;;;0.20;0.15;;;;;;;11.53;100.00;100692.34;5063582;28;20028;-77